Time;durP1;ratioP1;P1;durP2;ratioP2;P2;SDS_P1;SDS_P2;PMS_P1;PMS_P2;Temp;Humidity;BMP_temperature;BMP_pressure;BME280_temperature;BME280_humidity;BME280_pressure;Samples;Min_cycle;Max_cycle;Signal;HPM_P1;HPM_P2
2021/07/09 00:01:43;;;;;;;6.93;4.20;;;;;;;19.12;66.20;101770.00;4826152;29;20422;-64
2021/07/09 00:04:11;;;;;;;6.25;4.10;;;;;;;19.06;66.39;101764.63;4825974;29;20054;-64
2021/07/09 00:06:38;;;;;;;9.68;4.90;;;;;;;18.98;66.37;101768.34;4825633;29;20069;-64
2021/07/09 00:09:05;;;;;;;8.93;4.28;;;;;;;19.02;66.46;101768.47;4825451;29;20062;-65
2021/07/09 00:11:34;;;;;;;7.35;3.92;;;;;;;19.29;65.98;101767.00;4823569;29;20062;-65
2021/07/09 00:14:02;;;;;;;10.10;4.07;;;;;;;19.16;65.96;101770.94;4831327;29;20367;-65
2021/07/09 00:16:30;;;;;;;8.85;4.43;;;;;;;19.19;66.03;101764.66;4826494;29;20530;-63
2021/07/09 00:18:59;;;;;;;6.13;4.10;;;;;;;19.16;65.65;101768.16;4826155;29;20066;-65
2021/07/09 00:21:26;;;;;;;8.48;4.20;;;;;;;18.47;67.79;101773.56;4826384;29;20061;-64
2021/07/09 00:23:54;;;;;;;6.47;4.22;;;;;;;18.30;68.94;101780.09;4824001;29;20532;-65
2021/07/09 00:26:21;;;;;;;7.07;3.92;;;;;;;18.37;68.73;101777.56;4824698;29;20054;-64
2021/07/09 00:28:48;;;;;;;8.20;4.68;;;;;;;18.56;67.92;101769.56;4823757;29;20054;-65
2021/07/09 00:31:16;;;;;;;8.70;4.55;;;;;;;18.36;68.35;101775.13;4826399;29;20062;-65
2021/07/09 00:33:43;;;;;;;9.80;4.35;;;;;;;18.05;69.24;101778.28;4824624;29;20529;-65
2021/07/09 00:36:10;;;;;;;13.25;5.35;;;;;;;17.87;70.20;101766.44;4825425;29;20050;-64
2021/07/09 00:38:38;;;;;;;9.93;5.03;;;;;;;17.99;70.24;101769.28;4825570;29;20065;-64
2021/07/09 00:41:05;;;;;;;7.20;4.40;;;;;;;18.33;69.09;101776.63;4825732;29;20058;-64
2021/07/09 00:43:32;;;;;;;8.85;4.47;;;;;;;18.24;69.06;101769.44;4825787;29;20057;-65
2021/07/09 00:46:01;;;;;;;8.82;4.28;;;;;;;18.64;68.04;101774.25;4825546;29;20065;-64
2021/07/09 00:48:29;;;;;;;9.27;4.40;;;;;;;18.64;67.06;101770.63;4825867;29;20062;-65
2021/07/09 00:51:01;;;;;;;6.95;4.20;;;;;;;18.44;67.24;101774.25;4826492;29;20616;-64
2021/07/09 00:53:28;;;;;;;9.25;4.95;;;;;;;18.46;67.62;101772.75;4824757;29;20061;-64
2021/07/09 00:55:56;;;;;;;8.20;4.70;;;;;;;18.36;67.85;101786.28;4825083;29;20050;-64
2021/07/09 00:58:24;;;;;;;6.82;4.20;;;;;;;18.44;67.72;101779.84;4826234;29;20065;-64
2021/07/09 01:00:51;;;;;;;9.00;5.43;;;;;;;18.17;68.35;101783.13;4825089;29;20054;-64
2021/07/09 01:03:18;;;;;;;10.15;4.47;;;;;;;18.04;68.91;101782.25;4825148;29;20081;-66
2021/07/09 01:05:46;;;;;;;8.48;4.72;;;;;;;17.91;69.55;101781.31;4824235;29;20058;-68
2021/07/09 01:08:13;;;;;;;9.75;4.47;;;;;;;18.15;68.90;101782.66;4826721;29;20414;-64
2021/07/09 01:10:42;;;;;;;8.27;4.88;;;;;;;18.25;68.27;101790.63;4826254;29;20133;-64
2021/07/09 01:13:10;;;;;;;8.85;4.75;;;;;;;17.79;70.09;101795.16;4826126;29;20050;-64
2021/07/09 01:15:37;;;;;;;9.05;5.30;;;;;;;17.80;70.25;101794.00;4826795;29;20066;-67
2021/07/09 01:18:04;;;;;;;8.68;5.15;;;;;;;17.79;70.12;101792.38;4825797;29;20420;-67
2021/07/09 01:20:32;;;;;;;10.30;5.38;;;;;;;18.21;68.98;101786.88;4826014;29;20058;-64
2021/07/09 01:23:00;;;;;;;8.90;5.18;;;;;;;17.80;70.26;101794.00;4825154;29;20055;-64
2021/07/09 01:25:28;;;;;;;10.63;5.32;;;;;;;17.52;71.35;101794.81;4825222;29;20442;-64
2021/07/09 01:28:00;;;;;;;10.38;4.97;;;;;;;17.82;70.64;101793.66;4825174;29;20054;-65
2021/07/09 01:30:28;;;;;;;9.25;5.85;;;;;;;17.60;71.41;101792.00;4825440;29;20069;-65
2021/07/09 01:32:56;;;;;;;9.55;5.43;;;;;;;17.79;70.46;101800.75;4825957;29;20403;-64
2021/07/09 01:35:25;;;;;;;11.60;5.55;;;;;;;17.46;71.69;101808.09;4825907;29;20542;-64
2021/07/09 01:37:58;;;;;;;12.68;5.63;;;;;;;17.88;70.67;101797.91;4824194;29;20065;-65
2021/07/09 01:40:27;;;;;;;9.35;5.40;;;;;;;17.74;70.74;101800.13;4825885;29;20058;-64
2021/07/09 01:42:55;;;;;;;14.48;6.05;;;;;;;17.61;71.25;101790.81;4825682;29;20251;-66
2021/07/09 01:45:22;;;;;;;13.70;5.55;;;;;;;17.98;69.91;101783.56;4824499;29;20470;-65
2021/07/09 01:47:50;;;;;;;10.90;5.32;;;;;;;17.96;70.14;101772.78;4825389;29;20059;-65
2021/07/09 01:50:18;;;;;;;9.45;5.97;;;;;;;18.15;69.54;101783.47;4825595;29;20502;-65
2021/07/09 01:52:46;;;;;;;11.10;5.53;;;;;;;18.28;69.19;101781.56;4824718;29;20062;-64
2021/07/09 01:55:17;;;;;;;13.45;5.90;;;;;;;18.32;69.01;101782.53;4824407;29;20050;-67
2021/07/09 01:57:48;;;;;;;11.23;5.72;;;;;;;18.49;68.49;101783.25;4824353;29;20066;-65
2021/07/09 02:00:21;;;;;;;10.20;5.63;;;;;;;17.50;71.73;101794.31;4824842;29;20054;-65
2021/07/09 02:02:50;;;;;;;11.73;5.68;;;;;;;17.83;71.30;101782.22;4825794;29;20498;-64
2021/07/09 02:05:19;;;;;;;9.65;5.88;;;;;;;17.92;70.56;101779.38;4823857;29;20059;-64
2021/07/09 02:07:49;;;;;;;10.43;5.60;;;;;;;17.84;70.67;101780.22;4825456;29;20050;-64
2021/07/09 02:10:18;;;;;;;10.18;5.82;;;;;;;17.51;72.10;101782.03;4825186;29;20073;-66
2021/07/09 02:12:46;;;;;;;9.05;5.70;;;;;;;17.56;72.12;101781.81;4825252;29;20046;-65
2021/07/09 02:15:15;;;;;;;11.05;5.88;;;;;;;17.43;72.61;101780.88;4824913;29;20058;-65
2021/07/09 02:17:43;;;;;;;10.38;6.43;;;;;;;17.57;72.41;101775.91;4824115;29;20058;-65
2021/07/09 02:20:15;;;;;;;13.15;6.10;;;;;;;17.53;72.02;101782.50;4825154;29;20054;-66
2021/07/09 02:22:42;;;;;;;12.93;5.93;;;;;;;17.56;72.32;101781.81;4825679;29;20161;-66
2021/07/09 02:25:10;;;;;;;11.45;6.10;;;;;;;17.66;71.61;101773.91;4825456;29;20042;-63
2021/07/09 02:27:39;;;;;;;14.88;5.80;;;;;;;17.53;72.07;101785.28;4824721;29;20062;-63
2021/07/09 02:30:09;;;;;;;11.80;6.57;;;;;;;17.64;71.71;101776.22;4823815;29;20066;-64
2021/07/09 02:32:40;;;;;;;11.90;6.28;;;;;;;17.64;72.02;101784.56;4824644;29;20506;-65
2021/07/09 02:35:10;;;;;;;9.73;6.07;;;;;;;18.03;70.86;101772.22;4825631;29;20051;-64
2021/07/09 02:37:38;;;;;;;11.73;5.93;;;;;;;18.15;69.90;101772.31;4824918;29;20069;-65
2021/07/09 02:40:07;;;;;;;13.23;5.65;;;;;;;17.79;70.96;101769.25;4824555;29;20063;-65
2021/07/09 02:42:35;;;;;;;9.48;5.93;;;;;;;17.81;71.52;101766.97;4824860;29;20050;-69
2021/07/09 02:45:03;;;;;;;10.18;5.90;;;;;;;18.02;70.66;101762.25;4824986;29;20486;-64
2021/07/09 02:47:30;;;;;;;11.73;5.75;;;;;;;17.89;70.92;101768.88;4823789;29;20078;-64
2021/07/09 02:49:58;;;;;;;13.35;6.03;;;;;;;18.30;70.23;101768.94;4825202;29;20066;-64
2021/07/09 02:52:25;;;;;;;13.43;5.88;;;;;;;18.14;70.30;101765.09;4825156;29;20058;-65
2021/07/09 02:54:52;;;;;;;9.23;5.88;;;;;;;18.03;70.86;101757.50;4824868;29;20057;-64
2021/07/09 02:57:19;;;;;;;12.55;6.40;;;;;;;18.07;70.53;101762.03;4824704;29;20054;-65
2021/07/09 02:59:46;;;;;;;15.20;6.65;;;;;;;18.15;69.86;101763.94;4824583;29;20074;-65
2021/07/09 03:02:14;;;;;;;12.63;6.20;;;;;;;18.05;70.26;101767.13;4824844;29;20065;-65
2021/07/09 03:04:42;;;;;;;12.48;5.97;;;;;;;17.91;70.74;101761.81;4825386;29;20489;-66
2021/07/09 03:07:09;;;;;;;9.80;6.10;;;;;;;17.47;72.78;101762.38;4825336;29;20100;-64
2021/07/09 03:09:36;;;;;;;10.77;5.95;;;;;;;17.69;72.23;101758.50;4825213;29;20073;-64
2021/07/09 03:12:04;;;;;;;10.63;5.78;;;;;;;17.46;72.85;101757.09;4824540;29;20062;-64
2021/07/09 03:14:31;;;;;;;12.73;6.32;;;;;;;17.49;73.31;101754.50;4823338;29;20062;-65
2021/07/09 03:16:58;;;;;;;9.57;6.15;;;;;;;17.76;72.25;101742.06;4824540;29;20059;-64
2021/07/09 03:19:26;;;;;;;11.43;6.63;;;;;;;17.60;72.37;101749.38;4824349;29;20050;-64
2021/07/09 03:21:53;;;;;;;14.90;6.03;;;;;;;17.42;73.60;101745.81;4824399;29;20065;-64
2021/07/09 03:24:20;;;;;;;9.20;5.75;;;;;;;17.75;72.43;101744.03;4825184;29;20058;-65
2021/07/09 03:26:47;;;;;;;9.30;6.15;;;;;;;17.84;71.99;101747.59;4824766;29;20495;-64
2021/07/09 03:29:14;;;;;;;12.48;6.40;;;;;;;18.23;70.67;101745.53;4824028;29;20046;-64
2021/07/09 03:31:42;;;;;;;10.32;5.97;;;;;;;18.09;71.06;101748.59;4822742;29;20054;-64
2021/07/09 03:34:10;;;;;;;11.50;6.03;;;;;;;18.06;70.85;101745.66;4823913;29;20058;-65
2021/07/09 03:36:43;;;;;;;12.80;6.38;;;;;;;18.17;70.42;101746.88;4824956;29;20498;-65
2021/07/09 03:39:14;;;;;;;11.68;6.13;;;;;;;17.85;71.67;101745.63;4823090;29;20080;-65
2021/07/09 03:41:41;;;;;;;10.70;6.40;;;;;;;17.92;71.65;101745.91;4823078;29;20066;-64
2021/07/09 03:44:09;;;;;;;12.05;6.38;;;;;;;17.67;72.17;101747.69;4824175;29;20486;-64
2021/07/09 03:46:38;;;;;;;11.05;6.18;;;;;;;17.68;72.57;101754.91;4825377;29;20050;-65
2021/07/09 03:49:07;;;;;;;12.37;6.10;;;;;;;17.63;72.77;101760.66;4827279;29;20066;-64
2021/07/09 03:51:37;;;;;;;11.50;6.40;;;;;;;17.69;72.66;101753.75;4827163;29;20058;-65
2021/07/09 03:54:04;;;;;;;12.52;6.82;;;;;;;17.68;72.94;101751.28;4827238;29;20070;-65
2021/07/09 03:56:31;;;;;;;8.90;6.25;;;;;;;17.71;72.86;101750.63;4827365;29;20430;-65
2021/07/09 03:59:00;;;;;;;13.15;6.93;;;;;;;17.78;72.71;101748.13;4830010;29;20063;-68
2021/07/09 04:01:27;;;;;;;14.75;6.55;;;;;;;17.58;73.37;101751.66;4827375;29;20046;-65
2021/07/09 04:03:54;;;;;;;13.43;6.60;;;;;;;17.50;73.88;101750.59;4825841;29;20062;-65
2021/07/09 04:06:22;;;;;;;16.40;6.68;;;;;;;17.43;74.08;101757.78;4826155;29;20055;-65
2021/07/09 04:08:49;;;;;;;11.63;6.80;;;;;;;17.61;73.80;101745.41;4827413;29;20058;-64
2021/07/09 04:11:16;;;;;;;13.60;6.72;;;;;;;17.71;73.10;101739.47;4827331;29;20065;-65
2021/07/09 04:13:44;;;;;;;12.98;7.13;;;;;;;17.52;73.71;101748.25;4827130;29;20066;-64
2021/07/09 04:16:11;;;;;;;10.48;6.82;;;;;;;17.73;73.27;101739.97;4827678;29;20050;-65
2021/07/09 04:18:41;;;;;;;12.95;8.02;;;;;;;17.74;72.77;101745.19;4826246;29;20054;-65
2021/07/09 04:21:08;;;;;;;12.82;7.30;;;;;;;17.72;73.17;101741.94;4825864;29;20054;-64
2021/07/09 04:23:35;;;;;;;20.90;7.50;;;;;;;17.66;73.35;101746.06;4824808;29;20065;-64
2021/07/09 04:26:03;;;;;;;14.23;7.18;;;;;;;17.68;73.41;101762.44;4824647;29;20159;-65
2021/07/09 04:28:30;;;;;;;14.27;7.38;;;;;;;17.68;73.49;101757.69;4825626;29;20058;-64
2021/07/09 04:30:57;;;;;;;12.38;6.75;;;;;;;18.02;72.34;101762.25;4826641;29;20054;-64
2021/07/09 04:33:24;;;;;;;14.43;7.55;;;;;;;18.24;71.68;101758.28;4826838;29;20066;-65
2021/07/09 04:35:52;;;;;;;13.77;6.80;;;;;;;18.23;71.41;101753.88;4827053;29;20055;-65
2021/07/09 04:38:19;;;;;;;10.38;6.75;;;;;;;18.17;71.52;101761.63;4826828;29;20061;-65
2021/07/09 04:40:46;;;;;;;13.82;6.57;;;;;;;18.44;70.75;101761.16;4826687;29;20054;-67
2021/07/09 04:43:14;;;;;;;15.25;6.70;;;;;;;18.36;70.60;101761.19;4826236;29;20062;-65
2021/07/09 04:45:41;;;;;;;11.07;6.75;;;;;;;18.21;71.14;101767.34;4826802;29;20053;-64
2021/07/09 04:48:09;;;;;;;15.60;6.63;;;;;;;17.99;72.24;101769.28;4826424;29;20499;-64
2021/07/09 04:50:37;;;;;;;11.35;6.88;;;;;;;18.10;72.14;101763.34;4825372;29;20566;-65
2021/07/09 04:53:04;;;;;;;12.93;7.18;;;;;;;18.04;71.94;101767.47;4825941;29;20062;-64
2021/07/09 04:55:32;;;;;;;11.95;7.70;;;;;;;18.01;72.16;101763.38;4826605;29;20432;-65
2021/07/09 04:57:59;;;;;;;16.08;7.40;;;;;;;18.13;71.73;101766.28;4826129;29;20053;-64
2021/07/09 05:00:26;;;;;;;12.52;7.45;;;;;;;18.01;72.48;101762.59;4826311;29;20411;-65
2021/07/09 05:02:57;;;;;;;13.73;7.10;;;;;;;18.21;71.65;101775.72;4826392;29;20047;-65
2021/07/09 05:05:24;;;;;;;13.27;7.13;;;;;;;18.47;71.16;101776.38;4826298;29;20058;-66
2021/07/09 05:07:52;;;;;;;13.73;7.72;;;;;;;18.20;70.83;101762.94;4826474;29;20510;-65
2021/07/09 05:10:19;;;;;;;14.02;7.55;;;;;;;17.98;72.00;101770.47;4826909;29;20058;-64
2021/07/09 05:12:46;;;;;;;12.30;7.55;;;;;;;17.97;72.31;101766.03;4826740;29;20058;-64
2021/07/09 05:15:14;;;;;;;15.05;7.70;;;;;;;17.86;73.01;101762.00;4825460;29;20058;-66
2021/07/09 05:17:42;;;;;;;13.05;7.80;;;;;;;18.15;72.21;101772.31;4826312;29;20065;-65
2021/07/09 05:20:11;;;;;;;13.68;7.18;;;;;;;18.21;71.67;101772.94;4824684;29;20050;-65
2021/07/09 05:22:39;;;;;;;15.40;7.22;;;;;;;18.18;71.88;101768.03;4826055;29;20081;-64
2021/07/09 05:25:07;;;;;;;10.73;7.03;;;;;;;18.22;71.71;101782.94;4806214;29;20054;-64
2021/07/09 05:27:35;;;;;;;13.50;7.30;;;;;;;18.29;71.28;101784.03;4808191;29;20062;-66
2021/07/09 05:30:04;;;;;;;19.48;8.13;;;;;;;18.42;71.07;101779.38;4807407;29;20062;-65
2021/07/09 05:32:33;;;;;;;18.23;8.82;;;;;;;18.38;71.33;101783.94;4807434;29;20058;-65
2021/07/09 05:35:05;;;;;;;19.70;8.63;;;;;;;18.34;71.33;101775.44;4806357;29;20050;-65
2021/07/09 05:37:32;;;;;;;16.77;8.37;;;;;;;18.45;71.21;101776.72;4807701;29;20055;-64
2021/07/09 05:39:59;;;;;;;18.52;8.20;;;;;;;18.66;70.60;101785.06;4808075;29;20222;-64
2021/07/09 05:42:27;;;;;;;11.55;7.18;;;;;;;18.91;69.53;101775.63;4807979;29;20067;-64
2021/07/09 05:44:54;;;;;;;15.55;7.70;;;;;;;18.67;69.77;101776.34;4808124;29;20055;-65
2021/07/09 05:47:21;;;;;;;14.75;8.40;;;;;;;18.76;69.86;101785.47;4807386;29;20067;-66
2021/07/09 05:49:48;;;;;;;13.68;8.10;;;;;;;18.82;69.39;101783.28;4807108;29;20069;-65
2021/07/09 05:52:16;;;;;;;21.23;10.65;;;;;;;18.99;68.34;101778.34;4822315;29;20549;-65
2021/07/09 05:54:43;;;;;;;16.33;8.85;;;;;;;18.51;69.95;101789.31;4824324;29;20054;-65
2021/07/09 05:57:10;;;;;;;16.75;8.30;;;;;;;18.49;70.62;101785.22;4825561;29;20054;-66
2021/07/09 05:59:38;;;;;;;14.60;8.80;;;;;;;18.67;70.18;101781.94;4825415;29;20598;-64
2021/07/09 06:02:05;;;;;;;16.40;7.85;;;;;;;19.04;68.58;101782.88;4826248;29;20058;-66
2021/07/09 06:04:32;;;;;;;16.25;8.77;;;;;;;18.74;68.98;101781.41;4825676;29;20050;-64
2021/07/09 06:07:00;;;;;;;15.93;8.52;;;;;;;18.95;68.64;101782.19;4826160;29;20050;-66
2021/07/09 06:09:29;;;;;;;14.70;8.07;;;;;;;19.15;68.00;101786.88;4823587;29;20078;-64
2021/07/09 06:11:56;;;;;;;16.55;9.13;;;;;;;19.67;66.49;101787.94;4808960;29;20438;-64
2021/07/09 06:14:23;;;;;;;17.38;8.02;;;;;;;19.62;66.31;101778.94;4824972;29;20438;-65
2021/07/09 06:16:51;;;;;;;17.55;8.68;;;;;;;19.48;66.63;101790.47;4825148;29;20503;-64
2021/07/09 06:19:18;;;;;;;14.77;7.80;;;;;;;19.60;66.50;101787.69;4824422;29;20065;-64
2021/07/09 06:21:46;;;;;;;20.60;8.70;;;;;;;19.39;66.96;101786.97;4824896;29;20054;-65
2021/07/09 06:24:14;;;;;;;15.10;8.02;;;;;;;19.57;66.36;101791.19;4825206;29;20556;-64
2021/07/09 06:26:41;;;;;;;16.45;8.48;;;;;;;19.39;66.54;101789.75;4825023;29;20538;-64
2021/07/09 06:29:10;;;;;;;20.45;8.93;;;;;;;19.35;67.12;101797.22;4821003;29;20069;-64
2021/07/09 06:31:38;;;;;;;16.50;8.88;;;;;;;19.39;67.03;101800.09;4817315;29;20586;-64
2021/07/09 06:34:05;;;;;;;16.67;9.00;;;;;;;19.68;66.26;101795.13;4806518;29;20065;-67
2021/07/09 06:36:32;;;;;;;15.45;8.13;;;;;;;20.23;64.58;101797.38;4807994;29;20055;-65
2021/07/09 06:39:00;;;;;;;13.32;8.52;;;;;;;20.00;64.63;101810.16;4823745;29;20058;-66
2021/07/09 06:41:27;;;;;;;19.05;8.57;;;;;;;19.85;64.73;101805.28;4805437;29;20065;-66
2021/07/09 06:43:57;;;;;;;14.63;8.30;;;;;;;19.95;64.71;101808.44;4818000;29;20066;-65
2021/07/09 06:46:24;;;;;;;14.43;8.07;;;;;;;20.15;64.57;101813.06;4823333;29;20486;-65
2021/07/09 06:48:51;;;;;;;13.05;8.15;;;;;;;20.42;63.51;101803.16;4824391;29;20046;-65
2021/07/09 06:51:18;;;;;;;15.60;7.18;;;;;;;20.56;63.08;101806.38;4823649;29;20531;-65
2021/07/09 06:53:47;;;;;;;15.25;8.40;;;;;;;20.56;62.64;101808.34;4824515;29;20054;-64
2021/07/09 06:56:15;;;;;;;16.75;9.00;;;;;;;20.50;61.92;101809.78;4820252;29;20050;-64
2021/07/09 06:58:42;;;;;;;16.42;8.38;;;;;;;20.28;63.21;101797.13;4823710;29;20058;-44
2021/07/09 07:01:09;;;;;;;21.23;6.60;;;;;;;22.05;58.05;101801.69;4822785;29;20058;-57
2021/07/09 07:03:37;;;;;;;15.85;6.85;;;;;;;22.80;54.89;101792.97;4820618;29;20055;-46
2021/07/09 07:06:05;;;;;;;14.40;6.72;;;;;;;23.10;53.27;101796.78;4806507;29;20063;-42
2021/07/09 07:08:32;;;;;;;14.95;6.82;;;;;;;23.24;52.25;101803.47;4821637;29;20078;-40
2021/07/09 07:11:00;;;;;;;10.88;6.40;;;;;;;23.43;51.95;101797.03;4811208;29;20058;-45
2021/07/09 07:13:27;;;;;;;13.82;6.85;;;;;;;23.54;51.46;101800.84;4823824;29;20073;-41
2021/07/09 07:15:54;;;;;;;14.80;6.55;;;;;;;23.59;51.30;101792.09;4823595;29;20058;-42
2021/07/09 07:18:23;;;;;;;13.45;6.95;;;;;;;23.66;50.97;101797.81;4822777;29;20042;-41
2021/07/09 07:20:50;;;;;;;16.20;7.15;;;;;;;23.79;50.68;101801.25;4824620;29;20050;-42
2021/07/09 07:23:19;;;;;;;13.70;6.40;;;;;;;23.84;50.15;101810.22;4826866;29;20050;-43
2021/07/09 07:25:48;;;;;;;13.30;6.80;;;;;;;23.80;50.28;101805.72;4826335;29;20054;-41
2021/07/09 07:28:15;;;;;;;13.80;6.78;;;;;;;23.74;50.32;101805.22;4827688;29;20054;-48
2021/07/09 07:31:02;;;;;;;13.25;7.60;;;;;;;23.68;50.74;101801.09;4826067;29;20062;-43
2021/07/09 07:33:30;;;;;;;22.67;9.07;;;;;;;23.69;50.68;101799.09;4805928;29;20058;-43
2021/07/09 07:36:16;;;;;;;16.27;8.45;;;;;;;23.66;50.92;101795.00;4825762;29;20058;-46
2021/07/09 07:38:45;;;;;;;12.27;8.10;;;;;;;23.62;50.76;101799.78;4827710;29;20058;-44
2021/07/09 07:41:14;;;;;;;15.40;6.85;;;;;;;23.61;50.57;101798.16;4822745;29;20061;-47
2021/07/09 07:43:42;;;;;;;15.75;6.78;;;;;;;23.61;50.76;101805.75;4826378;29;20050;-45
2021/07/09 07:46:10;;;;;;;11.65;6.32;;;;;;;23.61;50.91;101803.78;4820571;29;20054;-44
2021/07/09 07:48:37;;;;;;;9.90;5.72;;;;;;;23.70;50.88;101797.88;4825249;29;20943;-45
2021/07/09 07:51:05;;;;;;;11.48;5.57;;;;;;;23.74;50.50;101796.78;4823290;29;20057;-47
2021/07/09 07:53:34;;;;;;;12.77;6.15;;;;;;;23.76;50.33;101802.84;4824177;29;20054;-48
2021/07/09 07:56:02;;;;;;;11.55;6.65;;;;;;;23.59;49.65;101796.91;4832324;29;20062;-41
2021/07/09 07:58:29;;;;;;;12.60;5.90;;;;;;;23.60;50.32;101799.34;4824905;29;20061;-41
2021/07/09 08:00:58;;;;;;;11.05;5.72;;;;;;;23.68;49.97;101795.47;4826215;29;20050;-44
2021/07/09 08:03:25;;;;;;;11.75;5.60;;;;;;;23.78;49.59;101803.25;4824637;29;20561;-42
2021/07/09 08:05:53;;;;;;;10.68;5.65;;;;;;;23.79;49.50;101795.63;4824383;29;20050;-43
2021/07/09 08:08:20;;;;;;;9.23;5.45;;;;;;;23.83;49.56;101799.34;4823862;29;20058;-42
2021/07/09 08:10:48;;;;;;;12.95;5.40;;;;;;;23.84;49.69;101798.94;4824592;29;20084;-41
2021/07/09 08:13:15;;;;;;;12.75;5.50;;;;;;;23.83;49.43;101797.34;4822375;29;20581;-42
2021/07/09 08:15:43;;;;;;;13.82;6.13;;;;;;;23.89;49.25;101800.63;4825426;29;20050;-42
2021/07/09 08:18:10;;;;;;;12.60;5.18;;;;;;;23.90;49.27;101797.41;4823761;29;20061;-42
2021/07/09 08:20:42;;;;;;;9.90;4.85;;;;;;;23.94;49.17;101791.84;4825581;29;20058;-42
2021/07/09 08:23:10;;;;;;;12.43;5.32;;;;;;;23.94;49.13;101786.22;4825517;29;20058;-46
2021/07/09 08:25:37;;;;;;;8.35;5.10;;;;;;;23.95;48.88;101793.50;4823115;29;20061;-49
2021/07/09 08:28:04;;;;;;;10.98;5.78;;;;;;;23.97;48.98;101785.50;4825048;29;20050;-46
2021/07/09 08:30:32;;;;;;;14.27;5.57;;;;;;;23.94;49.10;101784.22;4823903;29;20103;-51
2021/07/09 08:32:59;;;;;;;9.77;5.10;;;;;;;23.98;48.91;101785.09;4824953;29;20054;-45
2021/07/09 08:35:28;;;;;;;19.35;6.60;;;;;;;24.00;49.78;101779.13;4825022;29;20050;-46
2021/07/09 08:37:55;;;;;;;13.88;5.35;;;;;;;24.03;48.95;101784.00;4822283;29;20038;-47
2021/07/09 08:40:23;;;;;;;12.77;5.43;;;;;;;24.09;48.35;101779.66;4823924;29;20069;-44
2021/07/09 08:42:54;;;;;;;10.82;5.60;;;;;;;24.17;48.25;101772.94;4824174;29;20046;-48
2021/07/09 08:45:21;;;;;;;11.68;5.60;;;;;;;24.21;48.23;101773.81;4838509;29;20067;-45
2021/07/09 08:47:49;;;;;;;10.05;5.13;;;;;;;24.26;48.00;101779.94;4822499;29;20053;-45
2021/07/09 08:50:16;;;;;;;9.52;5.05;;;;;;;24.31;47.72;101771.16;4823671;29;20081;-45
2021/07/09 08:52:44;;;;;;;12.73;5.22;;;;;;;24.23;48.04;101777.84;4824221;29;20069;-47
2021/07/09 08:55:12;;;;;;;15.02;5.75;;;;;;;24.22;47.94;101766.97;4825790;29;20062;-46
2021/07/09 08:57:41;;;;;;;14.80;6.40;;;;;;;24.27;47.90;101766.66;4823102;29;20050;-44
2021/07/09 09:00:26;;;;;;;12.93;4.80;;;;;;;24.33;47.65;101770.75;4824562;29;20069;-43
2021/07/09 09:02:55;;;;;;;11.18;5.38;;;;;;;24.36;47.63;101765.19;4824088;29;20054;-43
2021/07/09 09:05:27;;;;;;;9.25;4.60;;;;;;;24.33;47.66;101771.59;4824468;29;20057;-46
2021/07/09 09:07:59;;;;;;;11.95;4.93;;;;;;;24.28;47.93;101774.75;4822990;29;20050;-46
2021/07/09 09:10:34;;;;;;;12.85;5.50;;;;;;;24.35;47.73;101768.38;4823217;29;20387;-48
2021/07/09 09:13:06;;;;;;;8.98;4.47;;;;;;;24.26;47.82;101763.03;4824156;29;20073;-42
2021/07/09 09:15:35;;;;;;;16.65;6.10;;;;;;;24.27;47.60;101767.47;4824158;29;20058;-42
2021/07/09 09:18:22;;;;;;;10.45;5.13;;;;;;;24.26;47.53;101765.84;4824442;29;20050;-45
2021/07/09 09:20:59;;;;;;;12.25;5.57;;;;;;;24.32;47.21;101769.16;4822901;29;20145;-46
2021/07/09 09:23:28;;;;;;;8.60;4.63;;;;;;;24.34;47.56;101766.75;4823320;29;20060;-46
2021/07/09 09:25:56;;;;;;;9.70;4.63;;;;;;;24.37;47.50;101752.72;4824080;29;20061;-47
2021/07/09 09:28:23;;;;;;;9.45;4.53;;;;;;;24.41;47.21;101756.41;4822406;29;20062;-46
2021/07/09 09:30:53;;;;;;;10.88;4.57;;;;;;;24.46;46.96;101761.69;4823069;29;20062;-46
2021/07/09 09:33:22;;;;;;;6.47;4.50;;;;;;;24.49;47.10;101762.94;4823375;29;20065;-48
2021/07/09 09:35:55;;;;;;;8.52;4.82;;;;;;;24.53;47.00;101760.97;4829478;29;20511;-46
2021/07/09 09:38:27;;;;;;;12.43;5.25;;;;;;;24.55;46.85;101767.03;4822862;29;20046;-44
2021/07/09 09:40:57;;;;;;;10.30;5.13;;;;;;;24.61;46.99;101764.69;4821671;29;20077;-50
2021/07/09 09:43:26;;;;;;;7.72;4.72;;;;;;;24.72;46.67;101760.03;4821542;29;20074;-44
2021/07/09 09:45:57;;;;;;;29.00;10.52;;;;;;;24.82;53.08;101762.16;4823077;29;20061;-43
2021/07/09 09:48:34;;;;;;;12.38;5.95;;;;;;;25.02;52.59;101767.22;4823499;29;20061;-45
2021/07/09 09:51:01;;;;;;;14.48;5.97;;;;;;;25.05;50.92;101763.66;4823590;29;20620;-48
2021/07/09 09:53:58;;;;;;;10.38;4.93;;;;;;;25.05;49.58;101765.66;4823784;29;20053;-44
2021/07/09 09:56:38;;;;;;;9.95;4.80;;;;;;;25.10;48.61;101765.31;4823764;29;20053;-44
2021/07/09 09:59:16;;;;;;;11.50;4.93;;;;;;;25.09;48.17;101761.66;4836233;29;20503;-45
2021/07/09 10:01:48;;;;;;;9.02;4.30;;;;;;;25.11;47.55;101767.75;4823642;29;20046;-47
2021/07/09 10:04:16;;;;;;;9.38;5.03;;;;;;;25.12;47.33;101762.91;4823738;29;20058;-44
2021/07/09 10:06:44;;;;;;;8.98;4.78;;;;;;;25.07;47.39;101761.25;4822635;29;20046;-44
2021/07/09 10:09:12;;;;;;;10.32;4.40;;;;;;;25.05;47.35;101763.66;4823643;29;20065;-51
2021/07/09 10:11:40;;;;;;;12.35;4.40;;;;;;;25.04;47.25;101764.03;4823635;29;20391;-47
2021/07/09 10:14:12;;;;;;;11.85;4.10;;;;;;;25.03;47.03;101759.59;4823642;29;20069;-45
2021/07/09 10:16:42;;;;;;;11.23;4.57;;;;;;;25.12;46.79;101757.28;4821976;29;20066;-44
2021/07/09 10:19:18;;;;;;;15.25;4.65;;;;;;;24.89;47.70;101757.44;4823796;29;20062;-46
2021/07/09 10:21:46;;;;;;;13.95;4.78;;;;;;;24.90;47.59;101752.59;4823221;29;20078;-46
2021/07/09 10:24:15;;;;;;;14.10;4.20;;;;;;;24.80;46.99;101750.47;4823534;29;20055;-45
2021/07/09 10:26:45;;;;;;;9.23;3.60;;;;;;;24.58;47.65;101752.19;4821007;29;20058;-44
2021/07/09 10:29:17;;;;;;;12.20;4.22;;;;;;;24.52;47.68;101751.72;4823161;29;20384;-43
2021/07/09 10:31:46;;;;;;;10.55;4.03;;;;;;;24.58;47.44;101742.94;4822975;29;20050;-43
2021/07/09 10:34:23;;;;;;;11.27;4.10;;;;;;;24.66;47.03;101745.44;4821583;29;20063;-45
2021/07/09 10:36:56;;;;;;;7.28;3.85;;;;;;;24.70;46.64;101751.97;4822251;29;20057;-47
2021/07/09 10:39:34;;;;;;;8.07;3.85;;;;;;;24.64;46.72;101744.19;4823100;29;20070;-46
2021/07/09 10:42:14;;;;;;;6.88;3.40;;;;;;;24.72;46.83;101748.78;4823506;29;20054;-47
2021/07/09 10:45:01;;;;;;;8.18;4.43;;;;;;;24.30;46.53;101746.97;4822626;29;20066;-42
2021/07/09 10:47:48;;;;;;;10.93;4.50;;;;;;;24.37;47.45;101744.25;4822091;29;20069;-42
2021/07/09 10:50:19;;;;;;;7.35;4.03;;;;;;;24.35;47.31;101743.84;4823049;29;20422;-44
2021/07/09 10:52:47;;;;;;;6.38;4.07;;;;;;;24.36;47.54;101748.28;4823431;29;20054;-46
2021/07/09 10:55:42;;;;;;;9.68;4.13;;;;;;;24.17;47.61;101745.59;4824091;29;20062;-46
2021/07/09 10:58:09;;;;;;;7.95;4.20;;;;;;;23.96;47.74;101744.44;4834990;29;20062;-45
2021/07/09 11:01:01;;;;;;;7.25;4.10;;;;;;;24.05;48.10;101743.03;4829407;29;20678;-43
2021/07/09 11:03:35;;;;;;;7.07;4.20;;;;;;;24.21;47.59;101740.03;4826095;29;20422;-43
2021/07/09 11:06:15;;;;;;;6.88;3.65;;;;;;;24.40;46.84;101726.63;4827814;29;20055;-43
2021/07/09 11:09:04;;;;;;;5.75;3.83;;;;;;;24.53;46.31;101727.16;4824773;29;20053;-50
2021/07/09 11:11:47;;;;;;;8.50;3.85;;;;;;;23.43;48.67;101726.72;4825201;29;20050;-46
2021/07/09 11:14:31;;;;;;;7.63;3.88;;;;;;;24.01;47.86;101719.63;4827077;29;20531;-46
2021/07/09 11:17:18;;;;;;;6.57;3.75;;;;;;;23.98;47.77;101717.56;4825958;29;20411;-43
2021/07/09 11:20:11;;;;;;;7.50;3.67;;;;;;;24.36;47.05;101708.03;4828483;29;20556;-46
2021/07/09 11:22:43;;;;;;;8.55;3.75;;;;;;;24.26;47.21;101703.09;4825242;29;20054;-45
2021/07/09 11:25:20;;;;;;;7.45;3.80;;;;;;;24.42;47.01;101701.72;4828280;29;20535;-44
2021/07/09 11:27:52;;;;;;;7.80;3.75;;;;;;;24.55;45.39;101704.25;4837123;29;20046;-48
2021/07/09 11:30:24;;;;;;;8.75;4.20;;;;;;;24.05;47.39;101708.41;4827665;29;20522;-46